Time;durP1;ratioP1;P1;durP2;ratioP2;P2;SDS_P1;SDS_P2;PMS_P1;PMS_P2;Temp;Humidity;BMP_temperature;BMP_pressure;BME280_temperature;BME280_humidity;BME280_pressure;Samples;Min_cycle;Max_cycle;Signal;HPM_P1;HPM_P2
2022/12/21 00:00:32;;;;;;;18.20;5.40;;;;;;;13.04;100.00;102386.63;4899423;29;20445;-87
2022/12/21 00:03:02;;;;;;;12.60;2.87;;;;;;;13.00;100.00;102376.16;4872626;29;20536;-87
2022/12/21 00:05:33;;;;;;;9.93;2.87;;;;;;;12.96;100.00;102364.66;4887772;29;20519;-88
2022/12/21 00:08:07;;;;;;;12.30;2.93;;;;;;;12.86;100.00;102363.97;4902314;29;20536;-88
2022/12/21 00:10:34;;;;;;;8.90;2.07;;;;;;;12.86;100.00;102372.22;4918919;29;20471;-86
2022/12/21 00:13:02;;;;;;;11.90;2.60;;;;;;;12.91;100.00;102383.50;4886770;29;20499;-87
2022/12/21 00:15:32;;;;;;;12.80;2.53;;;;;;;12.92;100.00;102379.75;4918540;29;20484;-86
2022/12/21 00:18:01;;;;;;;23.20;3.13;;;;;;;12.93;100.00;102370.47;4904761;29;20495;-85
2022/12/21 00:20:32;;;;;;;21.67;3.60;;;;;;;12.99;100.00;102383.53;4920196;29;20851;-86
2022/12/21 00:23:01;;;;;;;20.37;3.13;;;;;;;12.95;100.00;102379.41;4920352;29;20447;-86
2022/12/21 00:25:29;;;;;;;21.57;3.00;;;;;;;12.96;100.00;102370.16;4889552;29;20539;-86
2022/12/21 00:27:57;;;;;;;44.53;4.40;;;;;;;13.03;100.00;102376.69;4904607;29;20452;-86
2022/12/21 00:30:29;;;;;;;16.90;3.80;;;;;;;13.00;100.00;102373.41;4889708;29;20448;-86
2022/12/21 00:32:58;;;;;;;18.87;4.63;;;;;;;12.99;100.00;102368.94;4936574;29;20511;-87
2022/12/21 00:35:26;;;;;;;14.90;4.20;;;;;;;12.93;100.00;102370.47;4892132;29;20495;-87
2022/12/21 00:37:56;;;;;;;17.70;4.30;;;;;;;12.89;100.00;102363.63;4870399;29;20514;-87
2022/12/21 00:40:25;;;;;;;19.53;4.30;;;;;;;12.85;100.00;102365.00;4904239;29;20515;-87
2022/12/21 00:42:54;;;;;;;22.67;4.20;;;;;;;12.83;100.00;102368.94;4888979;29;20436;-87
2022/12/21 00:45:22;;;;;;;23.70;5.17;;;;;;;12.79;100.00;102363.78;4889184;29;20554;-87
2022/12/21 00:47:54;;;;;;;35.13;5.00;;;;;;;12.80;100.00;102368.25;4887156;29;20804;-87
2022/12/21 00:50:22;;;;;;;24.10;5.30;;;;;;;12.77;100.00;102356.75;4889022;29;20448;-87
2022/12/21 00:52:50;;;;;;;21.00;5.10;;;;;;;12.72;100.00;102350.91;4885328;29;20483;-87
2022/12/21 00:55:20;;;;;;;20.50;4.90;;;;;;;12.76;100.00;102368.75;4886146;29;20459;-86
2022/12/21 00:57:50;;;;;;;29.00;7.00;;;;;;;12.70;100.00;102359.28;4885575;29;20528;-86
2022/12/21 01:00:19;;;;;;;21.53;5.70;;;;;;;12.68;100.00;102357.75;4873329;29;20467;-86
2022/12/21 01:02:54;;;;;;;30.50;5.93;;;;;;;12.58;100.00;102337.84;4903334;29;20456;-86
2022/12/21 01:05:28;;;;;;;27.60;6.13;;;;;;;12.70;100.00;102363.94;4889208;29;20475;-86
2022/12/21 01:07:57;;;;;;;42.90;7.70;;;;;;;12.64;100.00;102342.66;4916555;29;20470;-87
2022/12/21 01:10:26;;;;;;;30.03;7.07;;;;;;;12.65;100.00;102360.84;4934270;29;20456;-87
2022/12/21 01:12:54;;;;;;;23.83;5.93;;;;;;;12.63;100.00;102360.16;4903383;29;20479;-87
2022/12/21 01:15:24;;;;;;;35.43;5.70;;;;;;;12.60;100.00;102363.22;4915348;29;21033;-86
2022/12/21 01:17:54;;;;;;;24.23;4.30;;;;;;;12.59;100.00;102356.88;4900614;29;20453;-86
2022/12/21 01:20:33;;;;;;;18.27;3.73;;;;;;;12.59;100.00;102361.50;4884918;29;20943;-86
2022/12/21 01:23:01;;;;;;;17.87;2.63;;;;;;;12.59;100.00;102358.75;4917311;29;20440;-86
2022/12/21 01:25:28;;;;;;;21.33;4.50;;;;;;;12.56;100.00;102356.34;4870075;29;20464;-86
2022/12/21 01:28:11;;;;;;;21.00;4.57;;;;;;;12.53;100.00;102342.97;4869355;29;20453;-86
2022/12/21 01:30:46;;;;;;;24.30;5.17;;;;;;;12.54;100.00;102341.94;4884489;29;20517;-86
2022/12/21 01:33:18;;;;;;;25.90;5.97;;;;;;;12.48;100.00;102337.16;4869843;29;20575;-86
2022/12/21 01:35:46;;;;;;;25.97;5.53;;;;;;;12.41;100.00;102325.97;4866377;29;20823;-86
2022/12/21 01:38:14;;;;;;;24.63;5.50;;;;;;;12.50;100.00;102351.56;4871331;29;20458;-86
2022/12/21 01:40:43;;;;;;;22.77;5.37;;;;;;;12.43;100.00;102341.25;4863035;29;20461;-86
2022/12/21 01:43:16;;;;;;;14.67;4.70;;;;;;;12.45;100.00;102344.69;4900078;29;20469;-87
2022/12/21 01:45:47;;;;;;;26.83;5.90;;;;;;;12.42;100.00;102345.00;4881780;29;20452;-86
2022/12/21 01:48:20;;;;;;;17.60;4.20;;;;;;;12.42;100.00;102353.22;4875025;29;20447;-87
2022/12/21 01:51:02;;;;;;;11.57;3.30;;;;;;;12.37;100.00;102363.84;4900449;29;20449;-86
2022/12/21 01:53:34;;;;;;;10.70;2.90;;;;;;;12.33;100.00;102359.69;4899160;29;20844;-87
2022/12/21 01:56:12;;;;;;;15.37;2.43;;;;;;;12.22;100.00;102337.22;4900094;29;20457;-86
2022/12/21 01:58:40;;;;;;;11.03;2.17;;;;;;;12.23;100.00;102345.28;4884223;29;20906;-86
2022/12/21 02:01:11;;;;;;;8.07;1.97;;;;;;;12.29;100.00;102343.78;4865726;29;20446;-86
2022/12/21 02:03:43;;;;;;;13.33;2.60;;;;;;;12.26;100.00;102339.47;4880316;29;20456;-86
2022/12/21 02:06:29;;;;;;;22.00;2.93;;;;;;;12.31;100.00;102348.06;4884883;29;20456;-86
2022/12/21 02:09:00;;;;;;;15.80;2.80;;;;;;;12.30;100.00;102351.84;4884157;29;20448;-87
2022/12/21 02:11:30;;;;;;;11.80;3.40;;;;;;;12.30;100.00;102354.56;4884906;29;20467;-86
2022/12/21 02:13:57;;;;;;;9.90;2.73;;;;;;;12.28;100.00;102345.66;4903206;29;20488;-87
2022/12/21 02:16:39;;;;;;;17.90;4.30;;;;;;;12.26;100.00;102344.09;4890813;29;20443;-86
2022/12/21 02:19:24;;;;;;;18.23;4.97;;;;;;;12.24;100.00;102349.75;4919021;29;20435;-86
2022/12/21 02:22:23;;;;;;;9.00;2.83;;;;;;;12.22;100.00;102346.31;4918759;29;20455;-87
2022/12/21 02:25:08;;;;;;;20.90;4.80;;;;;;;12.22;100.00;102349.03;4913161;29;20452;-86
2022/12/21 02:28:08;;;;;;;16.97;4.90;;;;;;;12.21;100.00;102358.28;4905955;29;20452;-87
2022/12/21 02:30:58;;;;;;;23.70;4.97;;;;;;;12.19;100.00;102354.84;4906881;29;20511;-86
2022/12/21 02:33:46;;;;;;;17.23;5.13;;;;;;;12.27;100.00;102360.38;4898990;29;20485;-87
2022/12/21 02:37:08;;;;;;;28.43;5.30;;;;;;;12.33;100.00;102367.06;4920421;29;20528;-87
2022/12/21 02:40:11;;;;;;;16.63;4.53;;;;;;;12.36;100.00;102374.97;4903805;29;20452;-87
2022/12/21 02:45:58;;;;;;;21.20;3.87;;;;;;;12.34;100.00;102375.13;4911867;29;20443;-87
2022/12/21 02:48:44;;;;;;;19.37;3.40;;;;;;;12.38;100.00;102382.00;4904392;29;20447;-87
2022/12/21 02:51:16;;;;;;;19.90;4.00;;;;;;;12.37;100.00;102374.81;4887358;29;20445;-87
2022/12/21 02:53:53;;;;;;;15.63;3.80;;;;;;;12.40;100.00;102373.63;4887792;29;20452;-86
2022/12/21 02:56:21;;;;;;;9.60;2.73;;;;;;;12.45;100.00;102373.97;4919878;29;20464;-86
2022/12/21 02:58:51;;;;;;;22.73;4.20;;;;;;;12.47;100.00;102371.06;4890448;29;20499;-86
2022/12/21 03:01:39;;;;;;;27.90;3.80;;;;;;;12.49;100.00;102377.25;4877739;29;20463;-86
2022/12/21 03:04:35;;;;;;;17.30;3.50;;;;;;;12.51;100.00;102383.44;4918327;29;20558;-87
2022/12/21 03:07:50;;;;;;;29.23;5.37;;;;;;;12.54;100.00;102380.34;4937740;29;20452;-87
2022/12/21 03:10:54;;;;;;;21.57;4.30;;;;;;;12.55;100.00;102377.44;4903785;29;20824;-88
2022/12/21 03:13:37;;;;;;;31.70;4.77;;;;;;;12.58;100.00;102381.72;4899326;29;20446;-88
2022/12/21 03:16:15;;;;;;;23.40;5.30;;;;;;;12.61;100.00;102375.91;4913619;29;20449;-87
2022/12/21 03:19:01;;;;;;;26.53;7.23;;;;;;;12.64;100.00;102379.19;4902811;29;20452;-86
2022/12/21 03:21:37;;;;;;;19.20;5.80;;;;;;;12.64;100.00;102376.44;4918875;29;20455;-87
2022/12/21 03:24:29;;;;;;;24.10;5.40;;;;;;;12.64;100.00;102376.44;4901949;29;20481;-86
2022/12/21 03:27:11;;;;;;;26.17;6.50;;;;;;;12.70;100.00;102385.91;4902799;29;20452;-86
2022/12/21 03:29:43;;;;;;;17.07;4.70;;;;;;;12.69;100.00;102364.97;4871907;29;20868;-86
2022/12/21 03:32:16;;;;;;;22.53;5.50;;;;;;;12.67;100.00;102367.03;4860953;29;20943;-87
2022/12/21 03:34:46;;;;;;;16.67;4.73;;;;;;;12.79;100.00;102363.78;4868731;29;20438;-87
2022/12/21 03:37:17;;;;;;;28.13;4.40;;;;;;;12.81;100.00;102358.13;4877981;29;20452;-87
2022/12/21 03:39:56;;;;;;;18.03;3.40;;;;;;;12.82;100.00;102357.09;4883766;29;20964;-88
2022/12/21 03:42:33;;;;;;;9.27;3.87;;;;;;;12.77;100.00;102354.00;4889289;29;20439;-87
2022/12/21 03:45:30;;;;;;;12.77;3.80;;;;;;;12.80;100.00;102348.19;4886688;29;20445;-87
2022/12/21 03:48:11;;;;;;;9.10;3.60;;;;;;;12.79;100.00;102344.56;4902296;29;20805;-87
2022/12/21 03:50:41;;;;;;;14.10;3.60;;;;;;;12.81;100.00;102355.38;4872418;29;20821;-86
2022/12/21 03:53:35;;;;;;;16.57;3.77;;;;;;;12.78;100.00;102362.06;4886508;29;20556;-87
2022/12/21 03:56:11;;;;;;;10.97;3.90;;;;;;;12.80;100.00;102359.16;4885712;29;20458;-87
2022/12/21 03:58:39;;;;;;;8.27;2.97;;;;;;;12.78;100.00;102362.06;4878343;29;20464;-87
2022/12/21 04:01:22;;;;;;;14.77;3.47;;;;;;;12.85;100.00;102372.38;4867930;29;20458;-87
2022/12/21 04:03:58;;;;;;;16.87;3.40;;;;;;;12.85;100.00;102361.41;4876397;29;20573;-88
2022/12/21 04:06:33;;;;;;;12.70;3.40;;;;;;;12.79;100.00;102341.84;4883615;29;20445;-88
2022/12/21 04:09:03;;;;;;;10.33;2.93;;;;;;;12.88;100.00;102356.44;4867989;29;20452;-87
2022/12/21 04:14:22;;;;;;;18.70;3.80;;;;;;;12.93;100.00;102364.13;4898188;29;20476;-88
2022/12/21 04:16:50;;;;;;;19.47;2.60;;;;;;;12.95;100.00;102362.94;4890274;29;20815;-88
2022/12/21 04:22:05;;;;;;;15.70;3.00;;;;;;;12.96;100.00;102353.69;4909447;29;20950;-88
2022/12/21 04:30:09;;;;;;;20.37;4.13;;;;;;;13.06;100.00;102362.63;4909898;29;20824;-88
2022/12/21 04:32:37;;;;;;;22.33;3.90;;;;;;;13.04;100.00;102350.09;4889495;29;20452;-88
2022/12/21 04:35:08;;;;;;;28.47;3.67;;;;;;;13.02;100.00;102358.50;4889255;29;20443;-88
2022/12/21 04:37:38;;;;;;;18.83;3.00;;;;;;;13.09;100.00;102370.50;4919924;29;20448;-88
2022/12/21 04:40:32;;;;;;;17.77;2.87;;;;;;;13.10;100.00;102383.19;4889932;29;20459;-88
2022/12/21 04:43:11;;;;;;;16.73;3.97;;;;;;;13.11;100.00;102379.41;4920676;29;20845;-88
2022/12/21 04:46:07;;;;;;;17.90;3.23;;;;;;;13.13;100.00;102382.84;4905587;29;20518;-89
2022/12/21 04:49:17;;;;;;;14.77;3.67;;;;;;;13.17;100.00;102382.56;4904594;29;20491;-88
2022/12/21 04:51:45;;;;;;;11.10;3.10;;;;;;;13.13;100.00;102366.38;4920923;29;20454;-88
2022/12/21 04:54:13;;;;;;;13.07;3.50;;;;;;;13.11;100.00;102356.59;4914199;29;20428;-87
2022/12/21 04:56:41;;;;;;;10.83;3.20;;;;;;;13.09;100.00;102359.50;4914676;29;20436;-87
2022/12/21 04:59:10;;;;;;;12.70;3.20;;;;;;;13.17;100.00;102371.56;4929868;29;20443;-88
2022/12/21 05:01:38;;;;;;;17.50;3.20;;;;;;;13.16;100.00;102361.63;4945318;29;20495;-87
2022/12/21 05:04:15;;;;;;;18.53;3.30;;;;;;;13.19;100.00;102380.50;4895306;29;20487;-86
2022/12/21 05:06:43;;;;;;;13.23;4.00;;;;;;;13.19;100.00;102381.34;4888707;29;20463;-85
2022/12/21 05:09:26;;;;;;;15.37;2.87;;;;;;;13.18;100.00;102370.53;4904419;29;20518;-85
2022/12/21 05:11:54;;;;;;;14.93;3.30;;;;;;;13.21;100.00;102375.69;4900760;29;20435;-86
2022/12/21 05:14:24;;;;;;;19.23;3.43;;;;;;;13.23;100.00;102376.38;4889027;29;20479;-86
2022/12/21 05:16:55;;;;;;;11.50;3.30;;;;;;;13.25;100.00;102385.31;4932609;29;20452;-87
2022/12/21 05:19:25;;;;;;;12.10;3.93;;;;;;;13.25;100.00;102380.69;4918618;29;20973;-86
2022/12/21 05:21:53;;;;;;;13.97;2.80;;;;;;;13.27;100.00;102381.38;4889181;29;20452;-85
2022/12/21 05:24:21;;;;;;;15.10;3.87;;;;;;;13.23;100.00;102382.75;4889046;29;20856;-85
2022/12/21 05:26:51;;;;;;;14.53;3.27;;;;;;;13.29;100.00;102389.41;4896737;29;20952;-86
2022/12/21 05:29:22;;;;;;;7.90;2.80;;;;;;;13.28;100.00;102388.56;4909246;29;20845;-87
2022/12/21 05:31:55;;;;;;;13.53;2.90;;;;;;;13.30;100.00;102399.38;4895748;29;20452;-88
2022/12/21 05:34:26;;;;;;;8.03;2.50;;;;;;;13.27;100.00;102394.25;4915323;29;20444;-86
2022/12/21 05:36:55;;;;;;;9.80;2.90;;;;;;;13.25;100.00;102393.56;4920589;29;20429;-88
2022/12/21 05:39:34;;;;;;;16.23;2.60;;;;;;;13.31;100.00;102399.19;4887677;29;20440;-86
2022/12/21 05:42:02;;;;;;;8.10;2.40;;;;;;;13.32;100.00;102408.28;4919102;29;20455;-85
2022/12/21 05:44:31;;;;;;;10.73;2.63;;;;;;;13.31;100.00;102401.94;4904135;29;20484;-86
2022/12/21 05:47:00;;;;;;;8.73;2.70;;;;;;;13.33;100.00;102404.53;4877238;29;20799;-86
2022/12/21 05:49:31;;;;;;;6.10;2.50;;;;;;;13.34;100.00;102406.25;4913517;29;20846;-85
2022/12/21 05:52:01;;;;;;;6.93;2.57;;;;;;;13.31;100.00;102393.72;4914869;29;20452;-86
2022/12/21 05:54:31;;;;;;;8.20;2.20;;;;;;;13.33;100.00;102393.53;4903644;29;20508;-87
2022/12/21 05:56:58;;;;;;;6.73;2.27;;;;;;;13.32;100.00;102403.66;4893195;29;20456;-86
2022/12/21 05:59:27;;;;;;;5.23;2.33;;;;;;;13.28;100.00;102399.53;4919866;29;20445;-87
2022/12/21 06:01:55;;;;;;;7.73;1.87;;;;;;;13.32;100.00;102403.66;4896730;29;20457;-87
2022/12/21 06:04:25;;;;;;;5.10;1.93;;;;;;;13.29;100.00;102393.00;4891195;29;20482;-86
2022/12/21 06:06:53;;;;;;;7.80;2.83;;;;;;;13.31;100.00;102401.09;4891360;29;20450;-87
2022/12/21 06:09:25;;;;;;;7.87;2.20;;;;;;;13.32;100.00;102400.91;4878889;29;20480;-87
2022/12/21 06:11:53;;;;;;;8.50;2.30;;;;;;;13.28;100.00;102395.94;4888703;29;20453;-87
2022/12/21 06:14:20;;;;;;;5.03;1.77;;;;;;;13.31;100.00;102401.94;4879341;29;20468;-86
2022/12/21 06:16:51;;;;;;;7.37;2.27;;;;;;;13.27;100.00;102391.50;4889082;29;20440;-87
2022/12/21 06:19:22;;;;;;;3.50;2.00;;;;;;;13.31;100.00;102403.84;4886629;29;20449;-86
2022/12/21 06:21:52;;;;;;;5.50;2.20;;;;;;;13.27;100.00;102395.09;4886265;29;20456;-86
2022/12/21 06:24:23;;;;;;;13.90;3.20;;;;;;;13.29;100.00;102400.41;4896799;29;20503;-86
2022/12/21 06:26:53;;;;;;;7.57;3.50;;;;;;;13.24;100.00;102394.59;4906048;29;20452;-87
2022/12/21 06:29:24;;;;;;;12.40;5.10;;;;;;;13.29;100.00;102414.13;4921229;29;20452;-86
2022/12/21 06:31:52;;;;;;;11.97;3.30;;;;;;;13.19;100.00;102405.22;4930697;29;20444;-87
2022/12/21 06:34:33;;;;;;;11.73;2.57;;;;;;;13.26;100.00;102422.72;4891613;29;20451;-86
2022/12/21 06:37:10;;;;;;;8.13;2.27;;;;;;;13.21;100.00;102412.25;4893714;29;20449;-86
2022/12/21 06:39:38;;;;;;;8.53;2.80;;;;;;;13.21;100.00;102414.13;4903543;29;20471;-86
2022/12/21 06:42:18;;;;;;;7.10;2.30;;;;;;;13.18;100.00;102418.06;4887911;29;20441;-87
2022/12/21 06:44:45;;;;;;;8.30;1.63;;;;;;;13.12;100.00;102413.22;4903522;29;20889;-85
2022/12/21 06:47:14;;;;;;;9.27;2.10;;;;;;;13.15;100.00;102418.41;4871965;29;20448;-85
2022/12/21 06:49:42;;;;;;;4.30;1.40;;;;;;;13.08;100.00;102412.69;4887855;29;20441;-86
2022/12/21 06:52:20;;;;;;;4.80;1.80;;;;;;;13.04;100.00;102405.00;4889681;29;20459;-86
2022/12/21 06:54:48;;;;;;;6.23;1.23;;;;;;;13.11;100.00;102423.34;4872386;29;20479;-86
2022/12/21 06:57:18;;;;;;;9.93;2.23;;;;;;;13.10;100.00;102429.00;4887648;29;20470;-85
2022/12/21 06:59:46;;;;;;;8.03;1.60;;;;;;;13.10;100.00;102431.75;4888072;29;20444;-85
2022/12/21 07:02:14;;;;;;;4.10;1.57;;;;;;;13.07;100.00;102430.22;4883693;29;20444;-85
2022/12/21 07:04:42;;;;;;;6.47;1.50;;;;;;;13.05;100.00;102424.03;4853980;29;20489;-85
2022/12/21 07:07:14;;;;;;;6.97;1.50;;;;;;;13.02;100.00;102435.34;4866813;29;20449;-86
2022/12/21 07:09:44;;;;;;;5.10;1.80;;;;;;;12.95;100.00;102439.78;4903459;29;20460;-86
2022/12/21 07:12:14;;;;;;;7.70;1.90;;;;;;;12.94;100.00;102438.06;4881632;29;20952;-86
2022/12/21 07:14:43;;;;;;;5.30;1.90;;;;;;;12.93;100.00;102440.97;4893601;29;20476;-86
2022/12/21 07:17:11;;;;;;;9.50;2.57;;;;;;;12.94;100.00;102442.69;4906135;29;20539;-85
2022/12/21 07:19:51;;;;;;;4.37;2.20;;;;;;;12.95;100.00;102449.91;4894589;29;20795;-85
2022/12/21 07:22:21;;;;;;;8.10;2.10;;;;;;;12.90;100.00;102442.16;4920490;29;20954;-87
2022/12/21 07:24:57;;;;;;;6.03;1.80;;;;;;;12.99;100.00;102462.28;4922180;29;20483;-87
2022/12/21 07:27:25;;;;;;;6.60;1.70;;;;;;;13.01;100.00;102465.72;4905421;29;20452;-87
2022/12/21 07:29:53;;;;;;;7.10;1.73;;;;;;;13.01;100.00;102469.31;4887103;29;20457;-87
2022/12/21 07:32:30;;;;;;;3.00;1.40;;;;;;;13.01;100.00;102471.19;4886745;29;20459;-87
2022/12/21 07:34:59;;;;;;;15.87;1.70;;;;;;;13.00;100.00;102469.47;4918934;29;20456;-88
2022/12/21 07:37:28;;;;;;;8.70;1.77;;;;;;;13.01;100.00;102476.69;4886720;29;20449;-86
2022/12/21 07:39:56;;;;;;;11.90;2.03;;;;;;;13.06;100.00;102474.31;4887170;29;20910;-86
2022/12/21 07:42:24;;;;;;;16.43;4.97;;;;;;;13.07;100.00;102473.28;4887522;29;20511;-86
2022/12/21 07:44:53;;;;;;;17.27;6.20;;;;;;;13.11;100.00;102488.38;4890630;29;20483;-87
2022/12/21 07:47:21;;;;;;;33.13;22.67;;;;;;;13.08;100.00;102477.75;4905470;29;20451;-87
2022/12/21 07:49:48;;;;;;;18.77;10.93;;;;;;;13.07;100.00;102485.13;4889673;29;20462;-88
2022/12/21 07:52:18;;;;;;;14.03;8.40;;;;;;;13.04;100.00;102479.97;4890078;29;20483;-86
2022/12/21 07:54:51;;;;;;;34.77;20.63;;;;;;;13.07;100.00;102489.75;4889999;29;20456;-87
2022/12/21 07:57:21;;;;;;;17.20;8.80;;;;;;;13.16;100.00;102499.75;4886362;29;20959;-86
2022/12/21 07:59:50;;;;;;;17.50;9.27;;;;;;;13.17;100.00;102501.47;4890938;29;20455;-87
2022/12/21 08:02:21;;;;;;;11.27;7.17;;;;;;;13.16;100.00;102493.41;4920930;29;20552;-87
2022/12/21 08:04:58;;;;;;;17.93;7.27;;;;;;;13.20;100.00;102511.25;4920210;29;20538;-87
2022/12/21 08:07:27;;;;;;;30.10;9.20;;;;;;;13.23;100.00;102510.94;4920909;29;20440;-87
2022/12/21 08:09:55;;;;;;;24.27;12.30;;;;;;;13.24;100.00;102509.91;4889763;29;20456;-86
2022/12/21 08:12:25;;;;;;;12.13;6.50;;;;;;;13.25;100.00;102511.63;4889025;29;20449;-87
2022/12/21 08:14:53;;;;;;;5.40;3.03;;;;;;;13.30;100.00;102514.69;4889777;29;20847;-87
2022/12/21 08:17:21;;;;;;;7.60;3.53;;;;;;;13.31;100.00;102510.94;4889637;29;20444;-86
2022/12/21 08:19:49;;;;;;;6.20;2.47;;;;;;;13.34;100.00;102518.84;4886373;29;20449;-86
2022/12/21 08:22:19;;;;;;;8.73;2.10;;;;;;;13.37;100.00;102513.88;4901195;29;20484;-86
2022/12/21 08:24:48;;;;;;;7.43;1.60;;;;;;;13.44;100.00;102523.16;4889681;29;20485;-87
2022/12/21 08:27:16;;;;;;;5.33;1.80;;;;;;;13.49;100.00;102523.50;4919771;29;20539;-87
2022/12/21 08:29:44;;;;;;;4.47;2.20;;;;;;;13.56;100.00;102531.94;4905253;29;20799;-86
2022/12/21 08:32:35;;;;;;;11.30;2.23;;;;;;;13.65;100.00;102530.06;4909670;29;20488;-88
2022/12/21 08:35:04;;;;;;;8.37;2.20;;;;;;;13.62;100.00;102525.75;4916426;29;20444;-87
2022/12/21 08:37:33;;;;;;;8.40;2.80;;;;;;;13.73;100.00;102533.66;4905025;29;20452;-88
2022/12/21 08:40:01;;;;;;;18.93;4.40;;;;;;;13.74;100.00;102535.38;4910606;29;20503;-88
2022/12/21 08:42:31;;;;;;;11.27;4.10;;;;;;;13.77;100.00;102535.03;4915825;29;20467;-88
2022/12/21 08:45:05;;;;;;;11.47;3.57;;;;;;;13.82;100.00;102532.66;4853698;29;20487;-87
2022/12/21 08:47:33;;;;;;;11.13;4.17;;;;;;;13.82;100.00;102532.66;4874547;29;20449;-88
2022/12/21 08:50:08;;;;;;;8.83;3.33;;;;;;;13.92;100.00;102535.22;4855629;29;20529;-89
2022/12/21 08:52:43;;;;;;;10.67;3.80;;;;;;;13.96;100.00;102532.97;4863593;29;20447;-89
2022/12/21 08:55:18;;;;;;;17.30;8.00;;;;;;;14.00;100.00;102540.72;4855801;29;20467;-86
2022/12/21 08:57:46;;;;;;;9.73;3.93;;;;;;;14.03;100.00;102537.63;4826520;29;20448;-86
2022/12/21 09:00:18;;;;;;;12.00;2.10;;;;;;;14.04;100.00;102530.25;4811808;29;20551;-87
2022/12/21 09:02:50;;;;;;;9.80;2.33;;;;;;;14.15;100.00;102551.88;4837778;29;20443;-87
2022/12/21 09:05:20;;;;;;;14.33;2.40;;;;;;;14.17;100.00;102545.16;4847605;29;20916;-87
2022/12/21 09:07:48;;;;;;;7.10;2.30;;;;;;;14.24;100.00;102548.06;4860326;29;20451;-87
2022/12/21 09:10:24;;;;;;;18.43;2.50;;;;;;;14.26;100.00;102546.00;4870434;29;20447;-87
2022/12/21 09:12:54;;;;;;;5.80;1.80;;;;;;;14.30;100.00;102555.63;4824995;29;20463;-86
2022/12/21 09:15:23;;;;;;;14.80;2.77;;;;;;;14.38;100.00;102554.78;4825990;29;20479;-88
2022/12/21 09:17:59;;;;;;;15.80;3.50;;;;;;;14.43;100.00;102564.22;4844168;29;20547;-86
2022/12/21 09:20:30;;;;;;;10.57;4.27;;;;;;;14.45;100.00;102556.66;4829234;29;20534;-86
2022/12/21 09:22:59;;;;;;;6.93;2.97;;;;;;;14.52;100.00;102570.59;4843537;29;20448;-85
2022/12/21 09:25:27;;;;;;;8.73;2.20;;;;;;;14.56;100.00;102565.59;4829099;29;21052;-86
2022/12/21 09:27:59;;;;;;;4.47;1.97;;;;;;;14.64;100.00;102571.06;4808413;29;20477;-86
2022/12/21 09:30:28;;;;;;;10.33;1.80;;;;;;;14.68;100.00;102577.94;4829562;29;20443;-86
2022/12/21 09:32:57;;;;;;;4.30;1.13;;;;;;;14.72;100.00;102584.81;4892474;29;20530;-86
2022/12/21 09:35:25;;;;;;;5.80;1.53;;;;;;;14.79;100.00;102594.09;4887901;29;20462;-86
2022/12/21 09:37:53;;;;;;;6.90;1.50;;;;;;;14.85;100.00;102590.63;4903941;29;20456;-86
2022/12/21 09:40:20;;;;;;;5.00;1.90;;;;;;;15.03;100.00;102594.00;4888328;29;20459;-86
2022/12/21 09:43:10;;;;;;;3.40;1.27;;;;;;;15.07;100.00;102598.13;4903769;29;20455;-86
2022/12/21 09:46:11;;;;;;;4.50;2.23;;;;;;;15.17;100.00;102598.78;4921548;29;20479;-86
2022/12/21 09:48:48;;;;;;;4.50;1.60;;;;;;;15.25;100.00;102591.50;4918761;29;20454;-85
2022/12/21 09:51:26;;;;;;;3.73;1.60;;;;;;;15.35;100.00;102598.53;4903913;29;20471;-87
2022/12/21 09:54:28;;;;;;;3.73;1.40;;;;;;;15.47;100.00;102601.72;4888942;29;20447;-86
2022/12/21 09:56:56;;;;;;;4.60;2.90;;;;;;;15.50;100.00;102599.47;4919638;29;20443;-86
2022/12/21 09:59:24;;;;;;;5.60;2.73;;;;;;;15.61;100.00;102598.22;4888724;29;20462;-86
2022/12/21 10:02:19;;;;;;;9.13;3.30;;;;;;;15.67;100.00;102608.53;4904329;29;20917;-86
2022/12/21 10:05:06;;;;;;;8.00;3.60;;;;;;;15.77;100.00;102605.56;4935961;29;20575;-85
2022/12/21 10:08:10;;;;;;;5.50;2.90;;;;;;;15.89;100.00;102612.34;4936262;29;20484;-87
2022/12/21 10:10:39;;;;;;;6.50;2.50;;;;;;;15.97;100.00;102617.78;4916340;29;21010;-86
2022/12/21 10:13:19;;;;;;;4.70;2.80;;;;;;;16.05;100.00;102623.25;4904093;29;20478;-85
2022/12/21 10:16:22;;;;;;;9.53;3.90;;;;;;;16.13;100.00;102625.13;4936690;29;20554;-86
2022/12/21 10:19:41;;;;;;;6.90;3.13;;;;;;;16.22;100.00;102624.00;4894619;29;20519;-87
2022/12/21 10:22:23;;;;;;;9.97;5.30;;;;;;;16.27;100.00;102616.03;4915562;29;20455;-87
2022/12/21 10:24:54;;;;;;;21.40;11.77;;;;;;;16.34;100.00;102611.50;4888325;29;20592;-87
2022/12/21 10:27:43;;;;;;;11.03;7.13;;;;;;;16.52;100.00;102614.78;4918394;29;20448;-87
2022/12/21 10:30:13;;;;;;;10.67;5.77;;;;;;;16.63;100.00;102604.31;4888204;29;20499;-86
2022/12/21 10:32:41;;;;;;;9.80;3.67;;;;;;;16.71;100.00;102618.06;4893191;29;20464;-87
2022/12/21 10:35:18;;;;;;;8.03;4.70;;;;;;;16.82;100.00;102617.59;4915354;29;20478;-87
2022/12/21 10:37:48;;;;;;;7.23;4.27;;;;;;;16.91;100.00;102619.22;4933615;29;20443;-87
2022/12/21 10:40:19;;;;;;;8.30;3.80;;;;;;;17.11;100.00;102616.75;4917362;29;20452;-88
2022/12/21 10:42:49;;;;;;;11.67;4.90;;;;;;;17.22;100.00;102606.06;4900774;29;20825;-87
2022/12/21 10:45:22;;;;;;;16.30;4.57;;;;;;;17.37;100.00;102605.19;4901644;29;20487;-86
2022/12/21 10:47:54;;;;;;;10.10;4.13;;;;;;;17.43;100.00;102604.41;4923884;29;20447;-87
2022/12/21 10:50:32;;;;;;;11.53;5.03;;;;;;;17.50;100.00;102605.38;4906160;29;20451;-86
2022/12/21 10:53:42;;;;;;;11.80;4.70;;;;;;;17.54;100.00;102590.94;4892259;29;20439;-86
2022/12/21 10:56:10;;;;;;;12.90;5.20;;;;;;;17.67;100.00;102604.09;4938340;29;20448;-86
2022/12/21 10:58:38;;;;;;;9.60;4.73;;;;;;;17.72;100.00;102601.59;4905659;29;20547;-86
2022/12/21 11:01:18;;;;;;;10.00;4.70;;;;;;;17.76;100.00;102605.69;4906067;29;20451;-86
2022/12/21 11:03:46;;;;;;;9.63;5.00;;;;;;;17.84;100.00;102602.81;4902027;29;20463;-86
2022/12/21 11:06:18;;;;;;;14.10;5.17;;;;;;;17.83;100.00;102603.84;4906239;29;21088;-86
2022/12/21 11:08:51;;;;;;;9.00;4.57;;;;;;;17.93;100.00;102607.16;4906163;29;20456;-87
2022/12/21 11:11:33;;;;;;;9.23;5.27;;;;;;;18.02;100.00;102610.66;4921816;29;20866;-86
2022/12/21 11:14:20;;;;;;;9.63;4.63;;;;;;;17.97;100.00;102598.44;4921325;29;20483;-86
2022/12/21 11:16:48;;;;;;;12.10;6.40;;;;;;;17.98;100.00;102594.63;4918658;29;20452;-86
2022/12/21 11:19:21;;;;;;;11.70;6.30;;;;;;;18.05;100.00;102601.09;4921381;29;20455;-87
2022/12/21 11:21:53;;;;;;;9.63;6.43;;;;;;;18.07;100.00;102586.03;4890619;29;20452;-86
2022/12/21 11:24:32;;;;;;;72.00;35.30;;;;;;;18.06;100.00;102580.69;4890599;29;20448;-86
2022/12/21 11:27:02;;;;;;;53.47;33.60;;;;;;;18.10;100.00;102587.50;4889913;29;20451;-86
2022/12/21 11:29:32;;;;;;;32.20;20.00;;;;;;;18.16;100.00;102581.19;4892410;29;20435;-85
2022/12/21 11:32:09;;;;;;;19.03;9.70;;;;;;;18.18;100.00;102568.88;4924224;29;20452;-86
2022/12/21 11:34:43;;;;;;;15.43;6.70;;;;;;;18.36;100.00;102571.13;4920518;29;20456;-86
2022/12/21 11:37:31;;;;;;;19.73;6.93;;;;;;;18.50;100.00;102570.19;4920654;29;20456;-86
2022/12/21 11:40:23;;;;;;;13.00;5.23;;;;;;;18.63;100.00;102562.03;4920555;29;20962;-89
2022/12/21 11:43:00;;;;;;;11.83;3.70;;;;;;;18.84;100.00;102557.47;4892849;29;20466;-90
2022/12/21 11:46:10;;;;;;;14.10;5.07;;;;;;;19.08;100.00;102565.25;4921686;29;20476;-89
2022/12/21 11:49:09;;;;;;;13.70;4.80;;;;;;;19.26;100.00;102565.53;4923574;29;20822;-87
2022/12/21 11:52:29;;;;;;;11.60;5.30;;;;;;;19.41;100.00;102565.41;4922225;29;20444;-91
2022/12/21 11:55:08;;;;;;;12.80;4.70;;;;;;;19.56;100.00;102568.03;4903499;29;20935;-93
2022/12/21 11:58:17;;;;;;;11.47;4.03;;;;;;;19.60;100.00;102574.88;4906158;29;20822;-91
2022/12/21 12:00:52;;;;;;;9.97;4.90;;;;;;;19.48;100.00;102576.50;4916731;29;20456;-91